Terminal Aerodrome Forecast
Issued by NWS

Home | Current Version | Previous Version | Text Only | Print | Product List | Glossary On
Versions: 1 2 3 4 5 6 7 8 9 10 11 12 13 14 15 16 17 18 19
000
FTUS46 KMTR 241300 AAA
TAFSNS
TAF AMD
KSNS 241309Z 2413/2512 VRB03KT P6SM BKN008
     FM241530 28004KT P6SM FEW010
     FM242000 29012KT P6SM SKC
     FM250400 29005KT P6SM FEW008=

USA.gov is the U.S. government's official web portal to all federal, state and local government web resources and services.